Time;durP1;ratioP1;P1;durP2;ratioP2;P2;SDS_P1;SDS_P2;PMS_P1;PMS_P2;Temp;Humidity;BMP_temperature;BMP_pressure;BME280_temperature;BME280_humidity;BME280_pressure;Samples;Min_cycle;Max_cycle;Signal;HPM_P1;HPM_P2
2023/12/21 00:02:17;;;;;;;;;;;8.20;99.90;;;;;;2615661;54;19953;-74
2023/12/21 00:04:50;;;;;;;;;;;8.20;99.90;;;;;;2618294;47;20061;-74
2023/12/21 00:07:20;;;;;;;;;;;8.20;99.90;;;;;;2617959;54;19958;-74
2023/12/21 00:09:50;;;;;;;;;;;8.30;99.90;;;;;;2617398;39;20367;-73
2023/12/21 00:12:19;;;;;;;;;;;8.30;99.90;;;;;;2617199;54;21438;-75
2023/12/21 00:14:49;;;;;;;;;;;8.20;99.90;;;;;;2617710;46;20452;-74
2023/12/21 00:17:19;;;;;;;;;;;8.20;99.90;;;;;;2615915;47;19953;-75
2023/12/21 00:19:51;;;;;;;;;;;8.30;99.90;;;;;;2616758;47;20943;-75
2023/12/21 00:22:25;;;;;;;;;;;8.30;99.90;;;;;;2615831;50;19945;-75
2023/12/21 00:24:55;;;;;;;;;;;8.30;99.90;;;;;;2617067;47;19951;-75
2023/12/21 00:27:25;;;;;;;;;;;8.30;99.90;;;;;;2617626;50;20024;-75
2023/12/21 00:29:54;;;;;;;;;;;8.30;99.90;;;;;;2617345;54;19957;-74
2023/12/21 00:32:24;;;;;;;;;;;8.30;99.90;;;;;;2615718;54;19961;-75
2023/12/21 00:34:56;;;;;;;;;;;8.30;99.90;;;;;;2616244;54;19947;-74
2023/12/21 00:37:26;;;;;;;;;;;8.30;99.90;;;;;;2616239;54;19942;-75
2023/12/21 00:39:57;;;;;;;;;;;8.30;99.90;;;;;;2617444;47;19950;-74
2023/12/21 00:42:27;;;;;;;;;;;8.30;99.90;;;;;;2616620;47;20560;-74
2023/12/21 00:44:57;;;;;;;;;;;8.30;99.90;;;;;;2617969;54;19946;-74
2023/12/21 00:47:26;;;;;;;;;;;8.30;99.90;;;;;;2616531;54;19946;-76
2023/12/21 00:49:59;;;;;;;;;;;8.30;99.90;;;;;;2624098;54;19923;-75
2023/12/21 00:52:28;;;;;;;;;;;8.30;99.90;;;;;;2624335;48;19990;-76
2023/12/21 00:54:58;;;;;;;;;;;8.30;99.90;;;;;;2617446;50;19968;-75
2023/12/21 00:57:28;;;;;;;;;;;8.30;99.90;;;;;;2617320;54;19935;-75
2023/12/21 00:59:57;;;;;;;;;;;8.30;99.90;;;;;;2615554;54;19958;-74
2023/12/21 01:02:27;;;;;;;;;;;8.30;99.90;;;;;;2615898;47;19946;-74
2023/12/21 01:04:59;;;;;;;;;;;8.30;99.90;;;;;;2616986;47;19939;-74
2023/12/21 01:07:29;;;;;;;;;;;8.30;99.90;;;;;;2618370;54;19962;-74
2023/12/21 01:09:58;;;;;;;;;;;8.30;99.90;;;;;;2617916;53;19967;-74
2023/12/21 01:12:31;;;;;;;;;;;8.30;99.90;;;;;;2616863;47;19993;-74
2023/12/21 01:15:02;;;;;;;;;;;8.30;99.90;;;;;;2615306;47;19961;-75
2023/12/21 01:17:32;;;;;;;;;;;8.30;99.90;;;;;;2615704;47;19940;-74
2023/12/21 01:20:04;;;;;;;;;;;8.30;99.90;;;;;;2616232;47;19946;-74
2023/12/21 01:22:33;;;;;;;;;;;8.30;99.90;;;;;;2617179;54;19969;-74
2023/12/21 01:25:03;;;;;;;;;;;8.30;99.90;;;;;;2615260;47;19946;-74
2023/12/21 01:27:33;;;;;;;;;;;8.30;99.90;;;;;;2617129;47;19946;-74
2023/12/21 01:30:02;;;;;;;;;;;8.30;99.90;;;;;;2617014;47;19938;-74
2023/12/21 01:32:32;;;;;;;;;;;8.30;99.90;;;;;;2616674;54;19947;-75
2023/12/21 01:35:05;;;;;;;;;;;8.30;99.90;;;;;;2616408;47;19947;-74
2023/12/21 01:37:34;;;;;;;;;;;8.20;99.90;;;;;;2618029;47;19994;-74
2023/12/21 01:40:04;;;;;;;;;;;8.30;99.90;;;;;;2613369;47;19966;-74
2023/12/21 01:42:34;;;;;;;;;;;8.30;99.90;;;;;;2616841;47;19941;-74
2023/12/21 01:45:04;;;;;;;;;;;8.30;99.90;;;;;;2616524;54;19947;-74
2023/12/21 01:47:34;;;;;;;;;;;8.20;99.90;;;;;;2616523;47;19954;-74
2023/12/21 01:50:06;;;;;;;;;;;8.20;99.90;;;;;;2616821;47;19946;-74
2023/12/21 01:52:37;;;;;;;;;;;8.20;99.90;;;;;;2616074;39;20365;-75
2023/12/21 01:55:07;;;;;;;;;;;8.20;99.90;;;;;;2615071;54;19969;-76
2023/12/21 01:57:37;;;;;;;;;;;8.20;99.90;;;;;;2613306;54;20607;-75
2023/12/21 02:00:08;;;;;;;;;;;8.30;99.90;;;;;;2613488;54;19954;-74
2023/12/21 02:02:37;;;;;;;;;;;8.30;99.90;;;;;;2616888;47;20046;-75
2023/12/21 02:05:10;;;;;;;;;;;8.20;99.90;;;;;;2613620;54;20016;-75
2023/12/21 02:07:40;;;;;;;;;;;8.30;99.90;;;;;;2617153;47;19946;-74
2023/12/21 02:10:10;;;;;;;;;;;8.30;99.90;;;;;;2615428;47;20074;-75
2023/12/21 02:12:40;;;;;;;;;;;8.30;99.90;;;;;;2617126;49;19981;-74
2023/12/21 02:15:10;;;;;;;;;;;8.20;99.90;;;;;;2616414;54;19935;-76
2023/12/21 02:17:40;;;;;;;;;;;8.30;99.90;;;;;;2617890;54;19938;-74
2023/12/21 02:20:13;;;;;;;;;;;8.20;99.90;;;;;;2616356;54;19943;-75
2023/12/21 02:22:43;;;;;;;;;;;8.20;99.90;;;;;;2616716;39;20126;-75
2023/12/21 02:25:16;;;;;;;;;;;8.30;99.90;;;;;;2614842;47;19957;-75
2023/12/21 02:27:46;;;;;;;;;;;8.30;99.90;;;;;;2617126;54;19997;-74
2023/12/21 02:30:16;;;;;;;;;;;8.30;99.90;;;;;;2615918;54;19934;-74
2023/12/21 02:32:45;;;;;;;;;;;8.30;99.90;;;;;;2616517;39;20447;-74
2023/12/21 02:35:15;;;;;;;;;;;8.30;99.90;;;;;;2616085;51;19946;-75
2023/12/21 02:37:45;;;;;;;;;;;8.30;99.90;;;;;;2616525;47;19971;-75
2023/12/21 02:40:17;;;;;;;;;;;8.30;99.90;;;;;;2615124;47;19950;-73
2023/12/21 02:42:47;;;;;;;;;;;8.30;99.90;;;;;;2625438;47;19958;-74
2023/12/21 02:45:17;;;;;;;;;;;8.30;99.90;;;;;;2624026;47;19950;-74
2023/12/21 02:47:47;;;;;;;;;;;8.30;99.90;;;;;;2617943;39;20207;-74
2023/12/21 02:50:16;;;;;;;;;;;8.30;99.90;;;;;;2616695;47;19946;-74
2023/12/21 02:52:46;;;;;;;;;;;8.40;99.90;;;;;;2616090;54;19946;-73
2023/12/21 02:55:18;;;;;;;;;;;8.40;99.90;;;;;;2616185;47;19998;-74
2023/12/21 02:57:48;;;;;;;;;;;8.40;99.90;;;;;;2616242;47;19946;-75
2023/12/21 03:00:18;;;;;;;;;;;8.40;99.90;;;;;;2616291;46;19973;-74
2023/12/21 03:02:48;;;;;;;;;;;8.40;99.90;;;;;;2616445;47;20459;-74
2023/12/21 03:05:17;;;;;;;;;;;8.40;99.90;;;;;;2616025;47;20413;-74
2023/12/21 03:07:47;;;;;;;;;;;8.40;99.90;;;;;;2615986;50;19950;-74
2023/12/21 03:10:19;;;;;;;;;;;8.40;99.90;;;;;;2615267;47;19946;-75
2023/12/21 03:12:49;;;;;;;;;;;8.40;99.90;;;;;;2614851;54;19946;-74
2023/12/21 03:15:19;;;;;;;;;;;8.40;99.90;;;;;;2616253;54;19973;-74
2023/12/21 03:17:48;;;;;;;;;;;8.40;99.90;;;;;;2616378;54;19950;-74
2023/12/21 03:20:18;;;;;;;;;;;8.40;99.90;;;;;;2616730;39;20532;-74
2023/12/21 03:22:48;;;;;;;;;;;8.40;99.90;;;;;;2616342;47;19973;-74
2023/12/21 03:25:21;;;;;;;;;;;8.40;99.90;;;;;;2615974;47;19946;-74
2023/12/21 03:27:50;;;;;;;;;;;8.50;99.90;;;;;;2616908;47;19950;-74
2023/12/21 03:30:20;;;;;;;;;;;8.50;99.90;;;;;;2615757;54;19954;-75
2023/12/21 03:32:50;;;;;;;;;;;8.50;99.90;;;;;;2615260;54;19955;-75
2023/12/21 03:35:20;;;;;;;;;;;8.50;99.90;;;;;;2615784;54;19941;-75
2023/12/21 03:37:50;;;;;;;;;;;8.50;99.90;;;;;;2615847;54;19958;-75
2023/12/21 03:40:22;;;;;;;;;;;8.60;99.90;;;;;;2614867;47;19946;-74
2023/12/21 03:42:52;;;;;;;;;;;8.60;99.90;;;;;;2616524;47;20062;-74
2023/12/21 03:45:23;;;;;;;;;;;8.60;99.90;;;;;;2616293;54;19953;-74
2023/12/21 03:47:53;;;;;;;;;;;8.60;99.90;;;;;;2615614;51;19951;-74
2023/12/21 03:50:23;;;;;;;;;;;8.60;99.90;;;;;;2616155;47;19958;-74
2023/12/21 03:52:52;;;;;;;;;;;8.60;99.90;;;;;;2615759;47;20007;-74
2023/12/21 03:55:24;;;;;;;;;;;8.60;99.90;;;;;;2615845;54;19956;-75
2023/12/21 03:57:56;;;;;;;;;;;8.70;99.90;;;;;;2617618;54;19939;-74
2023/12/21 04:00:26;;;;;;;;;;;8.70;99.90;;;;;;2615731;39;20381;-74
2023/12/21 04:02:55;;;;;;;;;;;8.70;99.90;;;;;;2615696;47;19950;-74
2023/12/21 04:05:25;;;;;;;;;;;8.70;99.90;;;;;;2615431;47;19954;-75
2023/12/21 04:07:55;;;;;;;;;;;8.70;99.90;;;;;;2616632;51;20058;-74
2023/12/21 04:10:27;;;;;;;;;;;8.70;99.90;;;;;;2614564;54;19939;-74
2023/12/21 04:12:57;;;;;;;;;;;8.70;99.90;;;;;;2616350;54;19975;-74
2023/12/21 04:15:27;;;;;;;;;;;8.80;99.90;;;;;;2616190;54;19943;-74
2023/12/21 04:17:56;;;;;;;;;;;8.80;99.90;;;;;;2615971;47;19953;-75
2023/12/21 04:20:26;;;;;;;;;;;8.80;99.90;;;;;;2615663;47;19950;-75
2023/12/21 04:22:56;;;;;;;;;;;8.70;99.90;;;;;;2616738;47;20014;-75
2023/12/21 04:25:28;;;;;;;;;;;8.80;99.90;;;;;;2617672;54;19947;-75
2023/12/21 04:27:58;;;;;;;;;;;8.70;99.90;;;;;;2618685;47;19939;-74
2023/12/21 04:30:27;;;;;;;;;;;8.80;99.90;;;;;;2617295;39;20287;-74
2023/12/21 04:32:57;;;;;;;;;;;8.80;99.90;;;;;;2618538;47;19947;-74
2023/12/21 04:35:27;;;;;;;;;;;8.80;99.90;;;;;;2625208;47;19945;-74
2023/12/21 04:37:56;;;;;;;;;;;8.90;99.90;;;;;;2624296;47;19950;-74
2023/12/21 04:40:28;;;;;;;;;;;8.90;99.90;;;;;;2615919;46;19942;-75
2023/12/21 04:42:58;;;;;;;;;;;8.80;99.90;;;;;;2617202;47;20026;-74
2023/12/21 04:45:28;;;;;;;;;;;8.90;99.90;;;;;;2616440;47;19938;-74
2023/12/21 04:47:57;;;;;;;;;;;8.90;99.90;;;;;;2617111;47;19941;-75
2023/12/21 04:50:28;;;;;;;;;;;8.90;99.90;;;;;;2615425;50;19947;-75
2023/12/21 04:52:58;;;;;;;;;;;9.10;99.90;;;;;;2616522;39;20443;-76
2023/12/21 04:55:30;;;;;;;;;;;9.00;99.90;;;;;;2615816;54;19954;-74
2023/12/21 04:58:00;;;;;;;;;;;9.00;99.90;;;;;;2616965;47;19935;-73
2023/12/21 05:00:29;;;;;;;;;;;9.00;99.90;;;;;;2614587;54;19973;-74
2023/12/21 05:02:59;;;;;;;;;;;9.00;99.90;;;;;;2615820;47;19939;-74
2023/12/21 05:05:29;;;;;;;;;;;9.00;99.90;;;;;;2614359;54;19953;-76
2023/12/21 05:07:58;;;;;;;;;;;9.00;99.90;;;;;;2615129;54;20058;-74
2023/12/21 05:10:31;;;;;;;;;;;9.00;99.90;;;;;;2614113;47;19949;-74
2023/12/21 05:13:00;;;;;;;;;;;9.10;99.90;;;;;;2616667;48;20074;-76
2023/12/21 05:15:30;;;;;;;;;;;9.10;99.90;;;;;;2613986;54;19947;-75
2023/12/21 05:18:00;;;;;;;;;;;9.00;99.90;;;;;;2616816;47;19947;-73
2023/12/21 05:20:29;;;;;;;;;;;9.10;99.90;;;;;;2615327;47;19943;-75
2023/12/21 05:23:22;;;;;;;;;;;9.10;99.90;;;;;;2612858;54;19957;-76
2023/12/21 05:26:19;;;;;;;;;;;9.10;99.90;;;;;;2616158;47;19943;-77
2023/12/21 05:28:56;;;;;;;;;;;9.10;99.90;;;;;;2616674;47;19938;-78
2023/12/21 05:31:26;;;;;;;;;;;9.70;99.90;;;;;;2617668;47;19946;-76
2023/12/21 05:33:56;;;;;;;;;;;9.10;99.90;;;;;;2626954;47;19952;-77
2023/12/21 05:36:26;;;;;;;;;;;9.10;99.90;;;;;;2616901;47;19963;-77
2023/12/21 05:38:56;;;;;;;;;;;9.10;99.90;;;;;;2617059;54;19950;-77
2023/12/21 05:41:28;;;;;;;;;;;9.10;99.90;;;;;;2616860;54;19938;-75
2023/12/21 05:43:58;;;;;;;;;;;9.10;99.90;;;;;;2616458;54;19957;-77
2023/12/21 05:46:28;;;;;;;;;;;9.10;99.90;;;;;;2616792;54;19939;-77
2023/12/21 05:48:58;;;;;;;;;;;9.10;99.90;;;;;;2617764;47;20026;-78
2023/12/21 05:51:28;;;;;;;;;;;9.10;99.90;;;;;;2618202;47;19946;-77
2023/12/21 05:53:58;;;;;;;;;;;9.10;99.90;;;;;;2616812;47;19947;-78
2023/12/21 05:56:30;;;;;;;;;;;9.10;99.90;;;;;;2616839;39;20339;-78
2023/12/21 05:59:00;;;;;;;;;;;9.10;99.90;;;;;;2617789;47;20045;-77
2023/12/21 06:01:30;;;;;;;;;;;9.10;99.90;;;;;;2617229;47;20545;-76
2023/12/21 06:04:02;;;;;;;;;;;9.10;99.90;;;;;;2615662;54;19974;-78
2023/12/21 06:06:32;;;;;;;;;;;9.10;99.90;;;;;;2620677;47;19955;-76
2023/12/21 06:09:02;;;;;;;;;;;9.10;99.90;;;;;;2624462;54;19953;-81
2023/12/21 06:11:47;;;;;;;;;;;9.00;99.90;;;;;;2622813;47;19943;-77
2023/12/21 06:14:40;;;;;;;;;;;9.00;99.90;;;;;;2619419;47;19939;-77
2023/12/21 06:17:11;;;;;;;;;;;9.10;99.90;;;;;;2619695;47;19946;-77
2023/12/21 06:19:40;;;;;;;;;;;9.10;99.90;;;;;;2616837;39;20445;-79
2023/12/21 06:22:10;;;;;;;;;;;9.10;99.90;;;;;;2617896;54;19946;-76
2023/12/21 06:24:40;;;;;;;;;;;9.10;99.90;;;;;;2617720;47;19946;-77
2023/12/21 06:27:13;;;;;;;;;;;9.10;99.90;;;;;;2618297;39;20487;-76
2023/12/21 06:29:43;;;;;;;;;;;9.10;99.90;;;;;;2618058;47;19959;-76
2023/12/21 06:32:24;;;;;;;;;;;9.10;99.90;;;;;;2619126;39;20692;-77
2023/12/21 06:34:59;;;;;;;;;;;9.10;99.90;;;;;;2627455;39;20378;-77
2023/12/21 06:37:29;;;;;;;;;;;9.10;99.90;;;;;;2619043;54;19939;-78
2023/12/21 06:39:59;;;;;;;;;;;9.20;99.90;;;;;;2618892;54;19946;-79
2023/12/21 06:42:32;;;;;;;;;;;9.20;99.90;;;;;;2618901;47;19963;-77
2023/12/21 06:45:03;;;;;;;;;;;9.20;99.90;;;;;;2618635;47;19947;-78
2023/12/21 06:47:33;;;;;;;;;;;9.20;99.90;;;;;;2620465;47;21043;-78
2023/12/21 06:50:03;;;;;;;;;;;9.20;99.90;;;;;;2620385;47;19960;-78
2023/12/21 06:52:33;;;;;;;;;;;9.20;99.90;;;;;;2619609;54;20426;-80
2023/12/21 06:55:03;;;;;;;;;;;9.20;99.90;;;;;;2619884;47;19998;-77
2023/12/21 06:57:35;;;;;;;;;;;9.20;99.90;;;;;;2620714;54;19946;-76
2023/12/21 07:00:06;;;;;;;;;;;9.30;99.90;;;;;;2618156;47;19946;-78
2023/12/21 07:02:36;;;;;;;;;;;9.20;99.90;;;;;;2620944;47;19953;-78
2023/12/21 07:05:06;;;;;;;;;;;9.20;99.90;;;;;;2621243;39;20214;-77
2023/12/21 07:07:36;;;;;;;;;;;9.30;99.90;;;;;;2620989;47;19946;-80
2023/12/21 07:10:07;;;;;;;;;;;9.30;99.90;;;;;;2618918;47;19934;-77
2023/12/21 07:12:40;;;;;;;;;;;9.30;99.90;;;;;;2612179;47;19950;-76
2023/12/21 07:15:10;;;;;;;;;;;9.30;99.90;;;;;;2609937;47;19950;-76
2023/12/21 07:17:42;;;;;;;;;;;9.30;99.90;;;;;;2608344;47;20033;-78
2023/12/21 07:20:13;;;;;;;;;;;9.30;99.90;;;;;;2611880;47;19950;-76
2023/12/21 07:22:43;;;;;;;;;;;9.30;99.90;;;;;;2613038;47;19950;-78
2023/12/21 07:25:13;;;;;;;;;;;9.30;99.90;;;;;;2610225;54;19973;-77
2023/12/21 07:27:46;;;;;;;;;;;9.40;99.90;;;;;;2611973;47;19947;-76
2023/12/21 07:30:16;;;;;;;;;;;9.40;99.90;;;;;;2611979;54;19998;-76
2023/12/21 07:32:46;;;;;;;;;;;9.30;99.90;;;;;;2614428;47;19951;-77
2023/12/21 07:35:16;;;;;;;;;;;9.40;99.90;;;;;;2620826;54;19954;-76
2023/12/21 07:37:46;;;;;;;;;;;10.20;99.90;;;;;;2612779;47;19973;-76
2023/12/21 07:40:16;;;;;;;;;;;9.40;99.90;;;;;;2609754;47;19954;-76
2023/12/21 07:42:48;;;;;;;;;;;9.40;99.90;;;;;;2619819;47;19938;-82
2023/12/21 07:45:19;;;;;;;;;;;9.40;99.90;;;;;;2628322;54;19939;-82
2023/12/21 07:47:49;;;;;;;;;;;9.50;99.90;;;;;;2627293;47;19943;-79
2023/12/21 07:50:21;;;;;;;;;;;9.30;99.90;;;;;;2624012;47;19950;-79
2023/12/21 07:52:56;;;;;;;;;;;9.60;99.90;;;;;;2627145;47;19950;-80
2023/12/21 07:55:36;;;;;;;;;;;9.70;99.90;;;;;;2626635;51;19946;-80
2023/12/21 07:58:19;;;;;;;;;;;9.70;99.90;;;;;;2627374;54;19946;-79
2023/12/21 08:00:49;;;;;;;;;;;9.90;99.90;;;;;;2627417;54;19946;-78
2023/12/21 08:03:19;;;;;;;;;;;9.90;99.90;;;;;;2626620;47;19954;-78
2023/12/21 08:05:49;;;;;;;;;;;10.00;99.90;;;;;;2619572;47;19969;-76
2023/12/21 08:08:19;;;;;;;;;;;10.10;99.90;;;;;;2620475;54;19943;-79
2023/12/21 08:10:49;;;;;;;;;;;9.90;99.90;;;;;;2619151;47;19953;-77
2023/12/21 08:13:22;;;;;;;;;;;9.90;99.90;;;;;;2620647;47;19953;-78
2023/12/21 08:15:51;;;;;;;;;;;9.80;99.90;;;;;;2620636;47;19946;-80
2023/12/21 08:18:21;;;;;;;;;;;9.80;99.90;;;;;;2622644;47;20778;-79
2023/12/21 08:20:51;;;;;;;;;;;9.80;99.90;;;;;;2623955;54;19957;-77
2023/12/21 08:23:21;;;;;;;;;;;9.80;99.90;;;;;;2623541;47;19941;-77
2023/12/21 08:25:51;;;;;;;;;;;9.80;99.90;;;;;;2619039;47;19989;-77
2023/12/21 08:28:25;;;;;;;;;;;9.80;99.90;;;;;;2619645;47;20071;-78
2023/12/21 08:30:55;;;;;;;;;;;9.70;99.90;;;;;;2619035;47;20038;-78
2023/12/21 08:33:25;;;;;;;;;;;9.70;99.90;;;;;;2621669;46;19947;-77
2023/12/21 08:35:55;;;;;;;;;;;9.70;99.90;;;;;;2628575;47;19949;-78
2023/12/21 08:38:25;;;;;;;;;;;9.60;99.90;;;;;;2622682;54;20009;-78
2023/12/21 08:40:55;;;;;;;;;;;9.60;99.90;;;;;;2620606;54;19946;-78
2023/12/21 08:43:27;;;;;;;;;;;9.60;99.90;;;;;;2620543;47;19946;-78
2023/12/21 08:45:57;;;;;;;;;;;9.60;99.90;;;;;;2620219;54;20455;-78
2023/12/21 08:48:27;;;;;;;;;;;9.70;99.90;;;;;;2620277;47;19945;-77
2023/12/21 08:50:58;;;;;;;;;;;9.60;99.90;;;;;;2620261;47;19939;-76
2023/12/21 08:53:27;;;;;;;;;;;9.60;99.90;;;;;;2620348;54;20005;-76
2023/12/21 08:55:57;;;;;;;;;;;9.70;99.90;;;;;;2618966;47;19939;-78
2023/12/21 08:58:30;;;;;;;;;;;9.70;99.90;;;;;;2618929;47;19953;-77
2023/12/21 09:01:00;;;;;;;;;;;9.70;99.90;;;;;;2619297;47;19951;-76
2023/12/21 09:03:30;;;;;;;;;;;9.70;99.90;;;;;;2620143;47;19935;-77
2023/12/21 09:06:01;;;;;;;;;;;10.40;99.90;;;;;;2623696;31;20413;-81
2023/12/21 09:08:32;;;;;;;;;;;9.70;99.90;;;;;;2627378;47;19973;-80
2023/12/21 09:11:02;;;;;;;;;;;9.80;99.90;;;;;;2627379;47;19957;-79
2023/12/21 09:13:34;;;;;;;;;;;9.80;99.90;;;;;;2624978;46;19946;-78
2023/12/21 09:16:04;;;;;;;;;;;9.80;99.90;;;;;;2619624;47;19946;-78
2023/12/21 09:21:16;;;;;;;;;;;9.80;99.90;;;;;;2603757;54;19951;-73
2023/12/21 09:23:46;;;;;;;;;;;9.80;99.90;;;;;;2614556;54;19941;-72
2023/12/21 09:26:16;;;;;;;;;;;9.80;99.90;;;;;;2614808;47;19939;-73
2023/12/21 09:28:48;;;;;;;;;;;9.90;99.90;;;;;;2612582;47;19942;-73
2023/12/21 09:31:18;;;;;;;;;;;9.90;99.90;;;;;;2614584;47;19938;-72
2023/12/21 09:33:48;;;;;;;;;;;9.90;99.90;;;;;;2614435;47;20454;-72
2023/12/21 09:36:19;;;;;;;;;;;9.90;99.90;;;;;;2614999;39;20460;-74
2023/12/21 09:38:48;;;;;;;;;;;9.90;99.90;;;;;;2615303;47;19939;-73
2023/12/21 09:41:18;;;;;;;;;;;10.00;99.90;;;;;;2614953;54;19947;-73
2023/12/21 09:43:53;;;;;;;;;;;10.00;99.90;;;;;;2614033;54;19958;-73
2023/12/21 09:46:23;;;;;;;;;;;10.00;99.90;;;;;;2615995;47;20517;-73
2023/12/21 09:48:55;;;;;;;;;;;10.00;99.90;;;;;;2615978;47;20683;-74
2023/12/21 09:51:25;;;;;;;;;;;10.10;99.90;;;;;;2613225;47;19946;-73
2023/12/21 09:53:56;;;;;;;;;;;10.10;99.90;;;;;;2614451;39;20387;-73
2023/12/21 09:56:26;;;;;;;;;;;10.20;99.90;;;;;;2614068;47;19953;-74
2023/12/21 09:58:59;;;;;;;;;;;10.20;99.90;;;;;;2614369;47;20067;-74
2023/12/21 10:01:29;;;;;;;;;;;10.20;99.90;;;;;;2622672;47;19942;-73
2023/12/21 10:04:00;;;;;;;;;;;10.20;99.90;;;;;;2619341;47;19957;-74
2023/12/21 10:06:30;;;;;;;;;;;10.50;99.90;;;;;;2615472;47;20055;-75
2023/12/21 10:08:59;;;;;;;;;;;10.20;99.90;;;;;;2614077;47;19950;-74
2023/12/21 10:11:30;;;;;;;;;;;10.40;99.90;;;;;;2614576;54;20043;-73
2023/12/21 10:14:04;;;;;;;;;;;10.20;99.90;;;;;;2615427;47;19939;-74
2023/12/21 10:16:35;;;;;;;;;;;10.20;99.90;;;;;;2616764;54;20038;-74
2023/12/21 10:19:04;;;;;;;;;;;10.30;99.90;;;;;;2617266;54;19962;-74
2023/12/21 10:21:35;;;;;;;;;;;10.30;99.90;;;;;;2618352;54;19972;-73
2023/12/21 10:24:05;;;;;;;;;;;10.20;99.90;;;;;;2615709;54;20461;-73
2023/12/21 10:26:43;;;;;;;;;;;10.20;99.90;;;;;;2616126;48;20785;-73
2023/12/21 10:29:18;;;;;;;;;;;10.30;99.90;;;;;;2615572;54;20042;-72
2023/12/21 10:31:49;;;;;;;;;;;10.30;99.90;;;;;;2617305;47;20016;-73
2023/12/21 10:34:19;;;;;;;;;;;10.30;99.90;;;;;;2616675;47;19947;-73
2023/12/21 10:36:49;;;;;;;;;;;10.30;99.90;;;;;;2617814;47;19947;-73
2023/12/21 10:39:19;;;;;;;;;;;10.20;99.90;;;;;;2615574;39;20176;-73
2023/12/21 10:41:49;;;;;;;;;;;10.40;99.90;;;;;;2615675;47;19974;-74
2023/12/21 10:44:22;;;;;;;;;;;10.40;99.90;;;;;;2616528;54;19947;-73
2023/12/21 10:47:04;;;;;;;;;;;10.40;99.90;;;;;;2614515;47;20022;-73
2023/12/21 10:49:34;;;;;;;;;;;10.40;99.90;;;;;;2613480;46;19962;-75
2023/12/21 10:52:05;;;;;;;;;;;10.40;99.90;;;;;;2616061;39;20396;-73
2023/12/21 10:54:34;;;;;;;;;;;10.40;99.90;;;;;;2614993;47;20422;-73
2023/12/21 10:57:04;;;;;;;;;;;10.30;99.90;;;;;;2615242;54;20098;-73
2023/12/21 10:59:37;;;;;;;;;;;10.40;99.90;;;;;;2614807;47;19947;-73
2023/12/21 11:02:12;;;;;;;;;;;10.30;99.90;;;;;;2615563;39;20384;-73
2023/12/21 11:04:42;;;;;;;;;;;9.90;99.90;;;;;;2615023;49;20029;-73
2023/12/21 11:07:13;;;;;;;;;;;10.40;99.90;;;;;;2614888;54;19942;-72
2023/12/21 11:09:43;;;;;;;;;;;10.40;99.90;;;;;;2614712;47;19957;-72
2023/12/21 11:12:13;;;;;;;;;;;10.50;99.90;;;;;;2613971;50;19945;-72
2023/12/21 15:35:42;;;;;;;;;;;11.00;99.90;;;;;;2617665;46;20505;-74
2023/12/21 15:38:12;;;;;;;;;;;11.10;99.90;;;;;;2619837;47;19953;-76
2023/12/21 15:40:41;;;;;;;;;;;11.10;99.90;;;;;;2617203;54;19954;-74
2023/12/21 15:43:11;;;;;;;;;;;11.10;99.90;;;;;;2618111;47;19950;-75
2023/12/21 15:45:43;;;;;;;;;;;11.10;99.90;;;;;;2614490;47;19950;-74
2023/12/21 15:48:14;;;;;;;;;;;11.10;99.90;;;;;;2621340;54;20522;-75
2023/12/21 15:50:48;;;;;;;;;;;11.20;99.90;;;;;;2620581;47;19946;-75
2023/12/21 15:53:18;;;;;;;;;;;11.10;99.90;;;;;;2618285;54;20045;-73
2023/12/21 15:55:48;;;;;;;;;;;11.10;99.90;;;;;;2615838;47;20438;-73
2023/12/21 16:00:53;;;;;;;;;;;11.20;99.90;;;;;;2620661;54;20206;-74
2023/12/21 16:03:24;;;;;;;;;;;11.20;99.90;;;;;;2622702;54;20457;-72
2023/12/21 16:05:56;;;;;;;;;;;11.30;99.90;;;;;;2621590;47;20014;-72
2023/12/21 16:08:26;;;;;;;;;;;11.30;99.90;;;;;;2619669;54;19934;-73
2023/12/21 16:10:55;;;;;;;;;;;11.20;99.90;;;;;;2618171;49;20042;-73
2023/12/21 16:13:25;;;;;;;;;;;11.20;99.90;;;;;;2616349;47;20467;-72
2023/12/21 16:15:55;;;;;;;;;;;11.20;99.90;;;;;;2617598;50;19946;-74
2023/12/21 16:18:26;;;;;;;;;;;11.20;99.90;;;;;;2615027;47;19966;-74
2023/12/21 16:20:58;;;;;;;;;;;11.20;99.90;;;;;;2621119;39;20072;-73
2023/12/21 16:23:28;;;;;;;;;;;11.20;99.90;;;;;;2618003;47;20034;-74
2023/12/21 16:26:00;;;;;;;;;;;11.20;99.90;;;;;;2616694;54;20472;-73
2023/12/21 16:28:30;;;;;;;;;;;11.20;99.90;;;;;;2618679;47;19946;-72
2023/12/21 16:31:00;;;;;;;;;;;11.10;99.90;;;;;;2621753;47;19946;-73
2023/12/21 16:33:30;;;;;;;;;;;11.10;99.90;;;;;;2620980;54;19934;-71
2023/12/21 16:36:02;;;;;;;;;;;11.00;99.90;;;;;;2621443;47;19947;-74
2023/12/21 16:38:35;;;;;;;;;;;10.80;99.90;;;;;;2621179;54;20002;-74
2023/12/21 16:41:06;;;;;;;;;;;10.70;99.90;;;;;;2624326;39;20484;-74
2023/12/21 16:43:37;;;;;;;;;;;10.70;99.90;;;;;;2623017;47;20452;-75
2023/12/21 16:46:08;;;;;;;;;;;10.60;99.90;;;;;;2619768;47;19950;-70
2023/12/21 16:48:38;;;;;;;;;;;10.60;99.90;;;;;;2618621;54;19943;-74
2023/12/21 16:51:10;;;;;;;;;;;10.60;99.90;;;;;;2620479;47;20470;-73
2023/12/21 16:53:41;;;;;;;;;;;10.60;99.90;;;;;;2621957;54;19971;-74
2023/12/21 16:56:11;;;;;;;;;;;10.50;99.90;;;;;;2617591;54;19942;-75
2023/12/21 16:58:41;;;;;;;;;;;10.50;99.90;;;;;;2617764;47;20449;-74
2023/12/21 17:01:12;;;;;;;;;;;10.60;99.90;;;;;;2618775;47;20071;-73
2023/12/21 17:03:42;;;;;;;;;;;10.60;99.90;;;;;;2597159;47;20473;-72
2023/12/21 17:06:14;;;;;;;;;;;10.60;99.90;;;;;;2602043;47;19946;-69
2023/12/21 17:08:44;;;;;;;;;;;10.50;99.90;;;;;;2598931;54;20085;-72
2023/12/21 17:11:14;;;;;;;;;;;10.40;99.90;;;;;;2600856;47;19955;-71
2023/12/21 17:13:44;;;;;;;;;;;10.30;99.90;;;;;;2600413;54;19946;-73
2023/12/21 17:16:15;;;;;;;;;;;10.20;99.90;;;;;;2599350;47;19950;-72
2023/12/21 17:18:45;;;;;;;;;;;10.00;99.90;;;;;;2600186;47;19954;-73
2023/12/21 17:21:20;;;;;;;;;;;10.00;99.90;;;;;;2602287;54;19950;-75
2023/12/21 17:23:50;;;;;;;;;;;9.90;99.90;;;;;;2601275;54;19946;-73
2023/12/21 17:26:20;;;;;;;;;;;9.90;99.90;;;;;;2601634;54;19953;-74
2023/12/21 17:28:50;;;;;;;;;;;9.90;99.90;;;;;;2601393;54;19950;-74
2023/12/21 17:31:19;;;;;;;;;;;9.90;99.90;;;;;;2600240;54;19979;-74
2023/12/21 17:33:50;;;;;;;;;;;9.90;99.90;;;;;;2599433;54;19951;-75
2023/12/21 17:36:23;;;;;;;;;;;9.90;99.90;;;;;;2605045;47;19954;-74
2023/12/21 17:38:52;;;;;;;;;;;9.90;99.90;;;;;;2600664;54;19951;-72
2023/12/21 17:41:22;;;;;;;;;;;9.90;99.90;;;;;;2601650;39;20356;-73
2023/12/21 17:43:53;;;;;;;;;;;9.90;99.90;;;;;;2598478;47;19971;-73
2023/12/21 17:46:25;;;;;;;;;;;9.90;99.90;;;;;;2599998;54;19950;-72
2023/12/21 17:48:55;;;;;;;;;;;9.90;99.90;;;;;;2598501;54;21908;-74
2023/12/21 17:51:27;;;;;;;;;;;9.90;99.90;;;;;;2598216;46;19962;-71
2023/12/21 17:53:58;;;;;;;;;;;10.00;99.90;;;;;;2595694;47;19946;-72
2023/12/21 17:56:29;;;;;;;;;;;10.00;99.90;;;;;;2598067;47;19950;-73
2023/12/21 17:58:59;;;;;;;;;;;10.10;99.90;;;;;;2594097;46;19985;-71
2023/12/21 18:01:29;;;;;;;;;;;10.10;99.90;;;;;;2600860;47;19956;-74
2023/12/21 18:03:59;;;;;;;;;;;10.10;99.90;;;;;;2603604;39;20977;-70
2023/12/21 18:06:31;;;;;;;;;;;10.20;99.90;;;;;;2601406;54;19951;-72
2023/12/21 18:09:01;;;;;;;;;;;10.20;99.90;;;;;;2599127;47;19950;-73
2023/12/21 18:11:31;;;;;;;;;;;10.20;99.90;;;;;;2602474;47;19950;-71
2023/12/21 18:14:01;;;;;;;;;;;10.20;99.90;;;;;;2603265;39;20419;-72
2023/12/21 18:16:31;;;;;;;;;;;10.30;99.90;;;;;;2600036;54;19968;-71
2023/12/21 18:19:04;;;;;;;;;;;11.30;99.90;;;;;;2596029;47;19977;-72
2023/12/21 18:21:37;;;;;;;;;;;10.40;99.90;;;;;;2599135;46;19954;-71
2023/12/21 18:24:07;;;;;;;;;;;10.30;99.90;;;;;;2595782;54;19950;-71
2023/12/21 18:26:37;;;;;;;;;;;10.40;99.90;;;;;;2598281;54;19958;-72
2023/12/21 18:29:09;;;;;;;;;;;10.40;99.90;;;;;;2599878;54;20025;-71
2023/12/21 18:31:39;;;;;;;;;;;10.40;99.90;;;;;;2598100;47;19962;-70
2023/12/21 18:34:08;;;;;;;;;;;10.40;99.90;;;;;;2598939;54;19954;-70
2023/12/21 18:36:41;;;;;;;;;;;10.40;99.90;;;;;;2599428;54;19950;-71
2023/12/21 18:39:11;;;;;;;;;;;10.40;99.90;;;;;;2597931;47;19951;-71
2023/12/21 18:41:40;;;;;;;;;;;10.30;99.90;;;;;;2598398;54;19953;-71
2023/12/21 18:44:10;;;;;;;;;;;10.30;99.90;;;;;;2595628;47;21785;-72
2023/12/21 18:46:40;;;;;;;;;;;10.30;99.90;;;;;;2597309;54;19970;-73
2023/12/21 18:49:11;;;;;;;;;;;10.30;99.90;;;;;;2598231;47;19973;-72
2023/12/21 18:51:43;;;;;;;;;;;10.30;99.90;;;;;;2610937;54;19951;-72
2023/12/21 18:54:13;;;;;;;;;;;10.20;99.90;;;;;;2612048;54;19947;-72
2023/12/21 18:56:43;;;;;;;;;;;9.90;99.90;;;;;;2612830;47;19947;-72
2023/12/21 18:59:12;;;;;;;;;;;9.90;99.90;;;;;;2615142;47;19947;-70
2023/12/21 19:01:42;;;;;;;;;;;9.80;99.90;;;;;;2615922;50;19950;-71
2023/12/21 19:04:15;;;;;;;;;;;9.60;99.90;;;;;;2616839;47;19946;-71
2023/12/21 19:06:48;;;;;;;;;;;9.50;99.90;;;;;;2616824;54;19946;-71
2023/12/21 19:09:17;;;;;;;;;;;9.40;99.90;;;;;;2615831;54;19946;-72
2023/12/21 19:11:47;;;;;;;;;;;9.40;99.90;;;;;;2616708;54;19947;-72
2023/12/21 19:14:17;;;;;;;;;;;9.30;99.90;;;;;;2617495;54;19938;-72